createdAt,value
2018-10-07T00:00:20.768Z,10.27
2018-10-07T00:02:51.534Z,11.70
2018-10-07T00:05:22.144Z,11.00
2018-10-07T00:07:52.998Z,11.37
2018-10-07T00:10:24.020Z,10.53
2018-10-07T00:12:54.627Z,11.63
2018-10-07T00:15:25.353Z,12.30
2018-10-07T00:17:56.033Z,13.13
2018-10-07T00:20:26.704Z,15.63
2018-10-07T00:22:57.417Z,15.97
2018-10-07T00:25:27.976Z,17.73
2018-10-07T00:27:58.622Z,15.60
2018-10-07T00:30:29.157Z,15.57
2018-10-07T00:32:59.846Z,14.87
2018-10-07T00:35:30.310Z,14.13
2018-10-07T00:38:01.052Z,14.83
2018-10-07T00:40:31.804Z,15.33
2018-10-07T00:43:02.774Z,14.47
2018-10-07T00:45:33.198Z,16.07
2018-10-07T00:48:04.192Z,15.70
2018-10-07T00:50:34.987Z,17.77
2018-10-07T00:53:05.619Z,15.53
2018-10-07T00:55:36.513Z,16.43
2018-10-07T00:58:07.127Z,16.83
2018-10-07T01:00:37.692Z,17.43
2018-10-07T01:03:08.320Z,17.73
2018-10-07T01:05:38.912Z,17.33
2018-10-07T01:08:09.598Z,18.27
2018-10-07T01:10:40.207Z,19.00
2018-10-07T01:13:10.976Z,17.70
2018-10-07T01:15:42.016Z,19.83
2018-10-07T01:18:13.671Z,18.70
2018-10-07T01:20:44.323Z,19.43
2018-10-07T01:23:14.707Z,19.23
2018-10-07T01:25:45.300Z,18.80
2018-10-07T01:28:15.810Z,18.77
2018-10-07T01:30:46.284Z,18.27
2018-10-07T01:33:16.771Z,19.30
2018-10-07T01:35:47.594Z,19.47
2018-10-07T01:38:18.330Z,19.87
2018-10-07T01:40:49.124Z,18.83
2018-10-07T01:43:19.655Z,17.20
2018-10-07T01:45:50.285Z,19.03
2018-10-07T01:48:20.885Z,18.70
2018-10-07T01:50:51.339Z,18.73
2018-10-07T01:53:22.850Z,17.93
2018-10-07T01:55:53.440Z,17.40
2018-10-07T01:58:23.968Z,18.53
2018-10-07T02:00:54.567Z,17.70
2018-10-07T02:03:25.083Z,18.00
2018-10-07T02:05:56.019Z,18.93
2018-10-07T02:08:26.622Z,18.70
2018-10-07T02:10:57.338Z,19.23
2018-10-07T02:13:27.988Z,19.07
2018-10-07T02:15:59.187Z,19.07
2018-10-07T02:18:29.795Z,17.23
2018-10-07T02:21:00.596Z,17.60
2018-10-07T02:23:31.019Z,17.40
2018-10-07T02:26:01.862Z,17.97
2018-10-07T02:28:32.669Z,17.90
2018-10-07T02:31:03.169Z,17.60
2018-10-07T02:33:34.038Z,17.93
2018-10-07T02:36:04.747Z,18.17
2018-10-07T02:38:35.771Z,19.13
2018-10-07T02:41:06.641Z,19.33
2018-10-07T02:43:37.260Z,19.90
2018-10-07T02:46:08.272Z,19.93
2018-10-07T02:48:38.686Z,19.00
2018-10-07T02:51:09.225Z,18.73
2018-10-07T02:53:40.075Z,18.40
2018-10-07T02:56:10.657Z,18.70
2018-10-07T02:58:41.280Z,19.77
2018-10-07T03:01:11.770Z,20.00
2018-10-07T03:03:42.383Z,18.70
2018-10-07T03:06:13.043Z,19.27
2018-10-07T03:08:43.507Z,19.03
2018-10-07T03:11:14.125Z,19.50
2018-10-07T03:13:44.724Z,19.37
2018-10-07T03:16:15.323Z,19.67
2018-10-07T03:18:45.984Z,19.67
2018-10-07T03:21:16.675Z,19.03
2018-10-07T03:23:47.193Z,19.20
2018-10-07T03:26:18.483Z,20.00
2018-10-07T03:28:48.894Z,18.63
2018-10-07T03:31:19.580Z,20.30
2018-10-07T03:33:50.314Z,20.30
2018-10-07T03:36:21.257Z,20.27
2018-10-07T03:38:51.814Z,21.17
2018-10-07T03:41:22.851Z,21.00
2018-10-07T03:43:53.313Z,20.57
2018-10-07T03:46:23.970Z,20.83
2018-10-07T03:48:54.927Z,20.53
2018-10-07T03:51:25.773Z,21.93
2018-10-07T03:53:56.546Z,20.77
2018-10-07T03:56:26.986Z,21.17
2018-10-07T03:58:57.925Z,20.37
2018-10-07T04:01:28.432Z,18.97
2018-10-07T04:03:59.490Z,19.63
2018-10-07T04:06:30.242Z,19.40
2018-10-07T04:09:01.155Z,19.20
2018-10-07T04:11:32.701Z,17.90
2018-10-07T04:14:03.238Z,17.50
2018-10-07T04:16:33.983Z,17.87
2018-10-07T04:19:04.535Z,16.93
2018-10-07T04:21:35.289Z,19.60
2018-10-07T04:24:05.728Z,19.67
2018-10-07T04:26:36.129Z,18.87
2018-10-07T04:29:08.267Z,19.93
2018-10-07T04:31:38.999Z,19.73
2018-10-07T04:34:09.897Z,19.27
2018-10-07T04:36:40.508Z,18.40
2018-10-07T04:39:12.731Z,20.30
2018-10-07T04:41:44.113Z,19.90
2018-10-07T04:44:14.667Z,20.67
2018-10-07T04:46:45.571Z,22.13
2018-10-07T04:49:16.008Z,22.00
2018-10-07T04:51:46.511Z,22.53
2018-10-07T04:54:17.498Z,21.80
2018-10-07T04:56:47.931Z,22.60
2018-10-07T04:59:19.141Z,21.93
2018-10-07T05:01:49.866Z,23.30
2018-10-07T05:04:20.495Z,22.20
2018-10-07T05:06:51.290Z,22.30
2018-10-07T05:09:22.586Z,22.50
2018-10-07T05:11:56.257Z,19.27
2018-10-07T05:14:27.136Z,19.07
2018-10-07T05:16:58.242Z,19.03
2018-10-07T05:19:29.141Z,18.27
2018-10-07T05:21:59.957Z,17.67
2018-10-07T05:24:30.636Z,17.83
2018-10-07T05:27:01.271Z,17.80
2018-10-07T05:29:32.170Z,18.80
2018-10-07T05:32:03.042Z,17.33
2018-10-07T05:34:33.652Z,17.27
2018-10-07T05:37:04.433Z,17.83
2018-10-07T05:39:35.221Z,15.80
2018-10-07T05:42:05.862Z,16.70
2018-10-07T05:44:36.720Z,16.20
2018-10-07T05:47:07.436Z,17.33
2018-10-07T05:49:38.222Z,18.70
2018-10-07T05:52:09.082Z,19.07
2018-10-07T05:54:39.816Z,19.37
2018-10-07T05:57:10.421Z,19.03
2018-10-07T05:59:41.360Z,18.47
2018-10-07T06:02:12.077Z,19.33
2018-10-07T06:04:44.598Z,18.80
2018-10-07T06:07:15.322Z,19.67
2018-10-07T06:09:46.144Z,18.80
2018-10-07T06:12:16.887Z,19.00
2018-10-07T06:14:58.556Z,18.93
2018-10-07T06:17:29.242Z,18.57
2018-10-07T06:20:00.240Z,19.97
2018-10-07T06:22:30.635Z,18.30
2018-10-07T06:25:01.385Z,19.20
2018-10-07T06:27:32.056Z,18.50
2018-10-07T06:30:02.729Z,18.97
2018-10-07T06:32:33.390Z,17.80
2018-10-07T06:35:03.896Z,17.90
2018-10-07T06:37:34.488Z,17.90
2018-10-07T06:40:05.333Z,17.40
2018-10-07T06:42:35.832Z,18.93
2018-10-07T06:45:06.920Z,17.10
2018-10-07T06:47:37.500Z,17.50
2018-10-07T06:50:08.321Z,17.23
2018-10-07T06:52:38.750Z,16.23
2018-10-07T06:55:09.353Z,15.80
2018-10-07T06:57:40.038Z,16.97
2018-10-07T07:00:10.945Z,16.30
2018-10-07T07:02:41.840Z,15.47
2018-10-07T07:05:12.520Z,15.30
2018-10-07T07:07:43.087Z,14.67
2018-10-07T07:10:13.521Z,15.23
2018-10-07T07:12:44.146Z,14.40
2018-10-07T07:15:14.972Z,14.53
2018-10-07T07:17:45.506Z,13.23
2018-10-07T07:20:16.130Z,12.47
2018-10-07T07:22:46.881Z,13.97
2018-10-07T07:25:17.406Z,12.57
2018-10-07T07:27:48.228Z,12.23
2018-10-07T07:30:18.863Z,12.17
2018-10-07T07:32:49.505Z,12.30
2018-10-07T07:35:20.173Z,11.60
2018-10-07T07:37:51.068Z,10.90
2018-10-07T07:40:21.645Z,9.60
2018-10-07T07:42:52.267Z,9.90
2018-10-07T07:45:22.752Z,9.33
2018-10-07T07:47:53.420Z,9.40
2018-10-07T07:50:24.056Z,9.43
2018-10-07T07:52:54.901Z,9.13
2018-10-07T07:55:25.794Z,7.97
2018-10-07T07:57:56.419Z,7.53
2018-10-07T08:00:27.215Z,7.80
2018-10-07T08:02:58.151Z,7.47
2018-10-07T08:05:29.215Z,7.20
2018-10-07T08:07:59.963Z,7.50
2018-10-07T08:10:30.848Z,6.50
2018-10-07T08:13:01.578Z,6.10
2018-10-07T08:15:32.285Z,5.87
2018-10-07T08:18:03.443Z,6.27
2018-10-07T08:20:34.237Z,5.60
2018-10-07T08:23:04.971Z,5.70
2018-10-07T08:25:35.803Z,6.60
2018-10-07T08:28:06.532Z,5.47
2018-10-07T08:30:37.206Z,5.60
2018-10-07T08:33:08.205Z,5.57
2018-10-07T08:35:38.973Z,5.70
2018-10-07T08:38:09.990Z,6.30
2018-10-07T08:40:41.296Z,5.80
2018-10-07T08:43:12.169Z,6.10
2018-10-07T08:45:43.231Z,5.33
2018-10-07T08:48:14.316Z,5.13
2018-10-07T08:50:45.102Z,5.00
2018-10-07T08:53:15.806Z,4.87
2018-10-07T08:55:46.421Z,5.10
2018-10-07T08:58:17.238Z,4.83
2018-10-07T09:00:48.057Z,5.10
2018-10-07T09:03:19.113Z,5.30
2018-10-07T09:05:50.036Z,7.60
2018-10-07T09:08:20.681Z,5.63
2018-10-07T09:10:51.533Z,7.10
2018-10-07T09:13:22.112Z,6.23
2018-10-07T09:15:53.423Z,5.80
2018-10-07T09:18:24.066Z,5.63
2018-10-07T09:20:57.257Z,5.40
2018-10-07T09:23:28.398Z,4.87
2018-10-07T09:25:59.420Z,5.50
2018-10-07T09:28:30.754Z,4.90
2018-10-07T09:31:01.697Z,4.87
2018-10-07T09:33:32.999Z,4.83
2018-10-07T09:36:03.942Z,5.53
2018-10-07T09:38:35.264Z,5.30
2018-10-07T09:41:06.095Z,6.80
2018-10-07T09:43:36.584Z,7.10
2018-10-07T09:46:07.340Z,5.93
2018-10-07T09:48:38.458Z,6.20
2018-10-07T09:51:09.581Z,6.33
2018-10-07T09:53:40.391Z,6.43
2018-10-07T09:56:11.142Z,6.10
2018-10-07T09:58:41.792Z,6.40
2018-10-07T10:01:12.503Z,5.63
2018-10-07T10:03:43.234Z,5.70
2018-10-07T10:06:14.012Z,5.50
2018-10-07T10:08:44.770Z,6.17
2018-10-07T10:11:15.567Z,4.83
2018-10-07T10:13:46.571Z,5.43
2018-10-07T10:16:17.289Z,8.17
2018-10-07T10:18:51.685Z,6.80
2018-10-07T10:21:42.866Z,5.00
2018-10-07T10:24:50.860Z,5.90
2018-10-07T10:27:57.880Z,5.03
2018-10-07T10:30:55.380Z,4.93
2018-10-07T10:33:31.228Z,6.87
2018-10-07T10:36:39.468Z,7.60
2018-10-07T10:39:19.268Z,8.30
2018-10-07T10:41:57.331Z,8.70
2018-10-07T10:44:36.486Z,8.73
2018-10-07T10:47:17.430Z,8.67
2018-10-07T10:49:55.613Z,8.87
2018-10-07T10:52:36.054Z,9.03
2018-10-07T10:55:13.418Z,7.93
2018-10-07T10:57:45.492Z,9.20
2018-10-07T11:00:29.679Z,9.17
2018-10-07T11:03:10.217Z,9.03
2018-10-07T11:06:51.432Z,9.33
2018-10-07T11:10:32.592Z,9.00
2018-10-07T11:13:20.345Z,9.07
2018-10-07T11:16:02.558Z,9.30
2018-10-07T11:20:49.319Z,9.37
2018-10-07T11:24:29.682Z,9.70
2018-10-07T11:27:07.963Z,8.87
2018-10-07T11:29:50.723Z,8.13
2018-10-07T11:32:46.328Z,8.33
2018-10-07T11:35:26.323Z,8.50
2018-10-07T11:39:06.210Z,8.17
2018-10-07T11:42:45.597Z,7.33
2018-10-07T11:45:19.681Z,7.20
2018-10-07T11:48:06.542Z,7.10
2018-10-07T11:50:48.142Z,6.50
2018-10-07T11:53:33.062Z,6.50
2018-10-07T11:56:03.961Z,6.27
2018-10-07T11:58:35.004Z,7.10
2018-10-07T12:01:05.515Z,7.67
2018-10-07T12:03:36.541Z,6.07
2018-10-07T12:06:07.218Z,5.83
2018-10-07T12:08:37.733Z,6.20
2018-10-07T12:11:09.085Z,5.77
2018-10-07T12:13:39.597Z,5.67
2018-10-07T12:16:10.306Z,5.37
2018-10-07T12:18:40.741Z,5.17
2018-10-07T12:21:11.438Z,4.90
2018-10-07T12:23:41.852Z,5.20
2018-10-07T12:26:12.697Z,6.37
2018-10-07T12:28:43.734Z,5.60
2018-10-07T12:31:14.644Z,4.87
2018-10-07T12:33:45.297Z,6.43
2018-10-07T12:36:15.920Z,7.10
2018-10-07T12:38:46.542Z,5.73
2018-10-07T12:41:17.410Z,5.70
2018-10-07T12:43:48.297Z,5.40
2018-10-07T12:46:18.936Z,5.73
2018-10-07T12:48:49.618Z,7.17
2018-10-07T12:51:20.906Z,5.53
2018-10-07T12:53:51.519Z,5.27
2018-10-07T12:56:22.263Z,5.10
2018-10-07T12:58:52.836Z,4.80
2018-10-07T13:01:23.575Z,4.63
2018-10-07T13:03:54.203Z,5.83
2018-10-07T13:06:24.757Z,5.33
2018-10-07T13:08:55.773Z,5.73
2018-10-07T13:11:26.364Z,5.00
2018-10-07T13:13:56.962Z,5.30
2018-10-07T13:16:27.426Z,4.50
2018-10-07T13:18:58.126Z,4.73
2018-10-07T13:21:28.831Z,5.53
2018-10-07T13:23:59.570Z,5.27
2018-10-07T13:26:30.470Z,4.87
2018-10-07T13:29:02.042Z,5.17
2018-10-07T13:31:32.756Z,4.90
2018-10-07T13:34:03.384Z,5.27
2018-10-07T13:36:33.867Z,5.37
2018-10-07T13:39:05.816Z,5.10
2018-10-07T13:41:36.173Z,4.90
2018-10-07T13:44:06.950Z,5.37
2018-10-07T13:46:37.605Z,5.93
2018-10-07T13:49:08.447Z,5.47
2018-10-07T13:51:39.408Z,5.70
2018-10-07T13:54:10.117Z,5.50
2018-10-07T13:56:40.886Z,5.20
2018-10-07T13:59:11.570Z,6.00
2018-10-07T14:01:42.253Z,5.37
2018-10-07T14:04:13.119Z,6.03
2018-10-07T14:06:43.756Z,5.20
2018-10-07T14:09:14.470Z,5.50
2018-10-07T14:11:45.573Z,5.60
2018-10-07T14:14:16.369Z,6.23
2018-10-07T14:16:47.199Z,6.80
2018-10-07T14:19:18.088Z,5.47
2018-10-07T14:21:48.968Z,5.97
2018-10-07T14:24:19.917Z,5.30
2018-10-07T14:26:50.457Z,5.93
2018-10-07T14:29:21.151Z,5.63
2018-10-07T14:31:51.956Z,5.80
2018-10-07T14:34:22.689Z,8.97
2018-10-07T14:36:53.487Z,6.93
2018-10-07T14:39:24.237Z,5.80
2018-10-07T14:41:54.877Z,6.20
2018-10-07T14:44:25.928Z,7.20
2018-10-07T14:46:56.754Z,6.70
2018-10-07T14:49:27.414Z,6.53
2018-10-07T14:51:58.050Z,5.87
2018-10-07T14:54:29.137Z,6.00
2018-10-07T14:57:00.140Z,5.07
2018-10-07T14:59:31.056Z,5.47
2018-10-07T15:02:01.597Z,5.87
2018-10-07T15:04:32.446Z,5.23
2018-10-07T15:07:02.996Z,6.43
2018-10-07T15:09:33.760Z,6.30
2018-10-07T15:12:04.750Z,6.57
2018-10-07T15:14:35.527Z,6.67
2018-10-07T15:17:06.569Z,6.37
2018-10-07T15:19:37.285Z,6.47
2018-10-07T15:22:08.200Z,5.30
2018-10-07T15:24:38.703Z,6.03
2018-10-07T15:27:09.298Z,5.47
2018-10-07T15:29:39.844Z,6.10
2018-10-07T15:32:10.336Z,7.57
2018-10-07T15:34:41.266Z,8.30
2018-10-07T15:37:11.828Z,8.17
2018-10-07T15:39:42.321Z,11.27
2018-10-07T15:42:12.849Z,11.40
2018-10-07T15:44:43.401Z,10.63
2018-10-07T15:47:13.987Z,8.63
2018-10-07T15:49:44.558Z,9.03
2018-10-07T15:52:15.078Z,10.13
2018-10-07T15:54:45.630Z,10.63
2018-10-07T15:57:16.147Z,9.97
2018-10-07T15:59:46.834Z,10.37
2018-10-07T16:02:17.639Z,10.30
2018-10-07T16:04:48.153Z,11.83
2018-10-07T16:07:19.129Z,13.00
2018-10-07T16:09:49.868Z,14.03
2018-10-07T16:12:20.655Z,13.13
2018-10-07T16:14:51.282Z,13.20
2018-10-07T16:17:21.765Z,14.07
2018-10-07T16:19:52.232Z,13.60
2018-10-07T16:22:22.791Z,13.67
2018-10-07T16:24:53.421Z,12.93
2018-10-07T16:27:24.211Z,12.33
2018-10-07T16:29:54.768Z,12.47
2018-10-07T16:32:25.512Z,11.43
2018-10-07T16:34:56.087Z,10.47
2018-10-07T16:37:27.383Z,9.90
2018-10-07T16:39:58.095Z,9.90
2018-10-07T16:42:28.896Z,10.63
2018-10-07T16:44:59.562Z,12.23
2018-10-07T16:47:29.995Z,13.20
2018-10-07T16:50:00.941Z,14.57
2018-10-07T16:52:31.439Z,13.50
2018-10-07T16:55:02.103Z,15.53
2018-10-07T16:57:32.909Z,14.57
2018-10-07T17:00:03.842Z,15.10
2018-10-07T17:02:34.315Z,13.40
2018-10-07T17:05:05.193Z,11.50
2018-10-07T17:07:36.458Z,10.27
2018-10-07T17:10:07.448Z,10.03
2018-10-07T17:12:38.044Z,8.37
2018-10-07T17:15:08.849Z,9.33
2018-10-07T17:17:39.265Z,8.40
2018-10-07T17:20:10.369Z,9.30
2018-10-07T17:22:40.897Z,8.03
2018-10-07T17:25:11.624Z,9.10
2018-10-07T17:27:42.274Z,9.03
2018-10-07T17:30:13.126Z,8.00
2018-10-07T17:32:43.879Z,8.63
2018-10-07T17:35:14.492Z,9.10
2018-10-07T17:37:45.107Z,9.63
2018-10-07T17:40:15.700Z,9.97
2018-10-07T17:42:46.850Z,9.60
2018-10-07T17:45:17.773Z,10.07
2018-10-07T17:47:48.401Z,10.17
2018-10-07T17:50:19.259Z,11.03
2018-10-07T17:52:50.323Z,9.73
2018-10-07T17:55:21.120Z,10.53
2018-10-07T17:57:51.935Z,10.20
2018-10-07T18:00:22.793Z,11.10
2018-10-07T18:02:53.901Z,12.50
2018-10-07T18:05:24.721Z,13.40
2018-10-07T18:07:55.627Z,12.60
2018-10-07T18:10:26.267Z,15.87
2018-10-07T18:12:57.132Z,16.97
2018-10-07T18:15:28.019Z,17.47
2018-10-07T18:17:58.695Z,19.70
2018-10-07T18:20:29.726Z,16.80
2018-10-07T18:23:01.666Z,16.23
2018-10-07T18:25:32.394Z,16.33
2018-10-07T18:28:03.577Z,15.50
2018-10-07T18:30:34.604Z,16.37
2018-10-07T18:33:05.522Z,13.77
2018-10-07T18:35:36.231Z,13.07
2018-10-07T18:38:07.183Z,13.47
2018-10-07T18:40:38.271Z,13.93
2018-10-07T18:43:08.992Z,15.40
2018-10-07T18:45:39.999Z,16.40
2018-10-07T18:48:10.858Z,16.73
2018-10-07T18:50:41.649Z,16.67
2018-10-07T18:53:12.226Z,17.70
2018-10-07T18:55:43.134Z,17.20
2018-10-07T18:58:13.902Z,17.40
2018-10-07T19:00:44.634Z,18.33
2018-10-07T19:03:15.304Z,17.17
2018-10-07T19:05:45.936Z,16.73
2018-10-07T19:08:16.521Z,15.57
2018-10-07T19:10:47.417Z,16.83
2018-10-07T19:13:18.489Z,16.10
2018-10-07T19:15:50.394Z,18.07
2018-10-07T19:18:21.238Z,16.00
2018-10-07T19:20:51.997Z,18.03
2018-10-07T19:23:22.904Z,18.70
2018-10-07T19:25:53.597Z,19.53
2018-10-07T19:28:25.802Z,18.60
2018-10-07T19:30:56.809Z,18.33
2018-10-07T19:33:28.503Z,19.07
2018-10-07T19:35:59.227Z,18.90
2018-10-07T19:38:29.869Z,18.93
2018-10-07T19:41:00.321Z,19.03
2018-10-07T19:43:32.383Z,18.20
2018-10-07T19:46:04.067Z,19.97
2018-10-07T19:48:34.809Z,18.97
2018-10-07T19:51:06.102Z,21.87
2018-10-07T19:53:36.907Z,22.60
2018-10-07T19:56:07.604Z,24.73
2018-10-07T19:58:38.400Z,24.07
2018-10-07T20:01:08.955Z,23.30
2018-10-07T20:03:42.854Z,22.70
2018-10-07T20:06:13.546Z,22.97
2018-10-07T20:08:44.363Z,26.37
2018-10-07T20:11:15.160Z,26.77
2018-10-07T20:13:45.728Z,27.83
2018-10-07T20:16:16.710Z,25.50
2018-10-07T20:18:47.387Z,26.97
2018-10-07T20:21:18.318Z,27.17
2018-10-07T20:23:49.511Z,25.27
2018-10-07T20:26:20.894Z,25.13
2018-10-07T20:28:51.751Z,26.03
2018-10-07T20:31:22.287Z,26.07
2018-10-07T20:33:53.480Z,25.60
2018-10-07T20:36:24.288Z,25.57
2018-10-07T20:38:55.877Z,25.13
2018-10-07T20:41:27.036Z,24.90
2018-10-07T20:43:58.014Z,25.10
2018-10-07T20:46:28.798Z,24.77
2018-10-07T20:49:04.126Z,24.67
2018-10-07T20:51:35.097Z,23.63
2018-10-07T20:54:05.692Z,24.73
2018-10-07T20:56:36.416Z,25.23
2018-10-07T20:59:07.056Z,26.13
2018-10-07T21:01:41.522Z,26.80
2018-10-07T21:04:13.040Z,26.40
2018-10-07T21:06:44.858Z,25.57
2018-10-07T21:09:16.605Z,25.27
2018-10-07T21:11:47.742Z,24.37
2018-10-07T21:14:18.500Z,21.20
2018-10-07T21:16:49.038Z,19.50
2018-10-07T21:19:19.878Z,18.23
2018-10-07T21:21:50.725Z,18.67
2018-10-07T21:24:21.804Z,17.33
2018-10-07T21:26:52.526Z,18.00
2018-10-07T21:29:23.049Z,16.53
2018-10-07T21:31:53.917Z,15.53
2018-10-07T21:34:24.535Z,16.30
2018-10-07T21:36:55.286Z,15.70
2018-10-07T21:39:26.250Z,15.53
2018-10-07T21:41:57.211Z,16.03
2018-10-07T21:44:28.139Z,15.43
2018-10-07T21:46:59.066Z,16.53
2018-10-07T21:49:29.699Z,16.03
2018-10-07T21:52:00.544Z,16.47
2018-10-07T21:54:31.507Z,15.47
2018-10-07T21:57:02.261Z,14.87
2018-10-07T21:59:33.333Z,16.17
2018-10-07T22:02:04.276Z,16.20
2018-10-07T22:04:35.004Z,15.33
2018-10-07T22:07:05.999Z,14.90
2018-10-07T22:09:36.653Z,15.57
2018-10-07T22:12:07.405Z,15.73
2018-10-07T22:14:38.257Z,15.77
2018-10-07T22:17:09.072Z,16.67
2018-10-07T22:19:39.838Z,16.17
2018-10-07T22:22:10.924Z,15.73
2018-10-07T22:24:41.643Z,15.97
2018-10-07T22:27:12.660Z,16.83
2018-10-07T22:29:43.319Z,16.07
2018-10-07T22:32:14.180Z,16.90
2018-10-07T22:34:44.991Z,15.40
2018-10-07T22:37:15.867Z,15.87
2018-10-07T22:39:46.672Z,15.67
2018-10-07T22:42:17.649Z,16.00
2018-10-07T22:44:48.304Z,15.40
2018-10-07T22:47:18.961Z,15.77
2018-10-07T22:49:49.660Z,15.50
2018-10-07T22:52:20.390Z,15.43
2018-10-07T22:54:51.176Z,15.23
2018-10-07T22:57:22.034Z,15.73
2018-10-07T22:59:52.745Z,15.97
2018-10-07T23:02:23.438Z,16.13
2018-10-07T23:04:54.216Z,16.43
2018-10-07T23:07:24.990Z,15.63
2018-10-07T23:09:55.753Z,15.57
2018-10-07T23:12:26.533Z,15.50
2018-10-07T23:14:57.317Z,15.70
2018-10-07T23:17:28.011Z,15.20
2018-10-07T23:19:58.557Z,15.37
2018-10-07T23:22:29.292Z,15.27
2018-10-07T23:25:00.064Z,15.70
2018-10-07T23:27:31.143Z,15.40
2018-10-07T23:30:02.150Z,16.37
2018-10-07T23:32:32.935Z,16.57
2018-10-07T23:35:03.993Z,15.63
2018-10-07T23:37:34.953Z,15.27
2018-10-07T23:40:06.264Z,15.60
2018-10-07T23:42:37.033Z,15.57
2018-10-07T23:45:07.940Z,15.50
2018-10-07T23:47:38.721Z,16.07
2018-10-07T23:50:09.133Z,16.07
2018-10-07T23:52:39.922Z,16.57
2018-10-07T23:55:10.689Z,16.33
2018-10-07T23:57:41.553Z,15.67
